Time;durP1;ratioP1;P1;durP2;ratioP2;P2;SDS_P1;SDS_P2;PMS_P1;PMS_P2;Temp;Humidity;BMP_temperature;BMP_pressure;BME280_temperature;BME280_humidity;BME280_pressure;Samples;Min_cycle;Max_cycle;Signal;HPM_P1;HPM_P2
2022/04/21 00:00:41;;;;;;;8.57;5.50;;;7.30;99.90;;;;;;4981732;28;20034;-62
2022/04/21 00:03:07;;;;;;;11.20;4.90;;;;;;;;;;4998077;28;20555;-62
2022/04/21 00:05:33;;;;;;;6.78;4.70;;;7.30;99.90;;;;;;4997713;28;20066;-63
2022/04/21 00:07:59;;;;;;;8.30;4.85;;;7.10;99.90;;;;;;4964727;28;20404;-63
2022/04/21 00:10:25;;;;;;;8.48;4.47;;;7.10;99.90;;;;;;4999315;28;20091;-62
2022/04/21 00:12:52;;;;;;;8.85;4.88;;;7.00;99.90;;;;;;4998051;28;20046;-63
2022/04/21 00:15:18;;;;;;;8.95;4.45;;;6.90;99.90;;;;;;4981976;28;20093;-63
2022/04/21 00:17:43;;;;;;;5.75;4.28;;;6.90;99.90;;;;;;4979642;28;20054;-63
2022/04/21 00:20:10;;;;;;;8.93;4.63;;;7.00;99.90;;;;;;4980804;28;20077;-63
2022/04/21 00:25:21;;;;;;;6.77;4.77;;;7.10;99.90;;;;;;4996458;28;20050;-63
2022/04/21 00:27:47;;;;;;;6.93;4.53;;;;;;;;;;4960945;28;20130;-63
2022/04/21 00:30:15;;;;;;;8.73;4.32;;;7.20;99.90;;;;;;4961469;28;20042;-62
2022/04/21 00:32:41;;;;;;;8.60;5.03;;;7.10;99.90;;;;;;4977864;28;20133;-63
2022/04/21 00:35:12;;;;;;;8.07;4.25;;;7.10;99.90;;;;;;4961300;28;20505;-62
2022/04/21 00:37:52;;;;;;;7.95;4.22;;;7.00;99.90;;;;;;4978602;28;20085;-63
2022/04/21 00:40:19;;;;;;;8.70;5.43;;;7.10;99.90;;;;;;4977788;28;20088;-63
2022/04/21 00:42:45;;;;;;;5.55;4.43;;;6.90;99.90;;;;;;4961090;28;20069;-63
2022/04/21 00:45:12;;;;;;;9.95;5.63;;;6.70;99.90;;;;;;4983981;28;20061;-63
2022/04/21 00:47:46;;;;;;;6.88;4.95;;;6.90;99.90;;;;;;4979351;28;20048;-62
2022/04/21 00:50:24;;;;;;;9.82;5.72;;;6.80;99.90;;;;;;4963832;28;20047;-63
2022/04/21 00:52:54;;;;;;;6.88;5.13;;;7.00;99.90;;;;;;4996912;28;20042;-62
2022/04/21 00:55:20;;;;;;;7.05;5.25;;;7.10;99.90;;;;;;4979506;28;20058;-63
2022/04/21 00:57:48;;;;;;;8.38;4.97;;;6.90;99.90;;;;;;4980971;28;20046;-63
2022/04/21 01:00:15;;;;;;;7.43;4.90;;;7.00;99.90;;;;;;4980296;28;20451;-63
2022/04/21 01:02:46;;;;;;;7.53;4.85;;;7.00;99.90;;;;;;4979977;28;20047;-63
2022/04/21 01:05:29;;;;;;;8.30;5.45;;;6.90;99.90;;;;;;4979460;28;20042;-63
2022/04/21 01:08:04;;;;;;;8.65;5.88;;;7.10;99.90;;;;;;4979888;28;20054;-63
2022/04/21 01:10:34;;;;;;;9.00;5.47;;;7.00;99.90;;;;;;4997326;28;20066;-63
2022/04/21 01:13:04;;;;;;;5.47;4.68;;;;;;;;;;4979434;28;20042;-63
2022/04/21 01:15:29;;;;;;;7.40;5.18;;;7.00;99.90;;;;;;4979880;28;20113;-62
2022/04/21 01:17:55;;;;;;;12.73;5.70;;;7.00;99.90;;;;;;4996677;28;20452;-63
2022/04/21 01:20:22;;;;;;;8.77;5.53;;;7.00;99.90;;;;;;4963396;28;20074;-63
2022/04/21 01:22:48;;;;;;;9.32;5.60;;;6.80;99.90;;;;;;4959532;28;20039;-62
2022/04/21 01:25:14;;;;;;;8.85;5.78;;;6.70;99.90;;;;;;4977522;28;20057;-62
2022/04/21 01:27:41;;;;;;;7.15;5.60;;;6.90;99.90;;;;;;4959740;28;20043;-62
2022/04/21 01:30:08;;;;;;;9.88;5.78;;;7.00;99.90;;;;;;4976431;28;20624;-62
2022/04/21 01:32:36;;;;;;;8.07;5.32;;;6.70;99.90;;;;;;4960028;28;20062;-62
2022/04/21 01:35:07;;;;;;;8.95;6.50;;;6.80;99.90;;;;;;4959359;28;20516;-63
2022/04/21 01:43:02;;;;;;;9.93;6.25;;;;;;;;;;4959446;28;20286;-62
2022/04/21 01:45:27;;;;;;;11.50;6.20;;;6.70;99.90;;;;;;4968013;28;20046;-63
2022/04/21 01:47:57;;;;;;;10.90;6.28;;;6.70;99.90;;;;;;4980586;28;20492;-62
2022/04/21 01:50:24;;;;;;;8.68;5.63;;;6.70;99.90;;;;;;4997249;28;20042;-63
2022/04/21 01:52:49;;;;;;;9.85;6.18;;;6.50;99.90;;;;;;4979806;28;20038;-62
2022/04/21 01:55:15;;;;;;;9.10;5.88;;;6.50;99.90;;;;;;4980581;28;20402;-62
2022/04/21 01:57:41;;;;;;;9.38;5.95;;;6.30;99.90;;;;;;4996407;28;20077;-62
2022/04/21 02:00:07;;;;;;;10.80;6.07;;;6.30;99.90;;;;;;4962601;28;20450;-62
2022/04/21 02:02:33;;;;;;;11.07;5.90;;;;;;;;;;4978990;28;20034;-62
2022/04/21 02:05:03;;;;;;;10.73;6.30;;;6.30;99.90;;;;;;4963609;28;20038;-62
2022/04/21 02:07:28;;;;;;;9.50;6.38;;;6.30;99.90;;;;;;4996533;28;20519;-62
2022/04/21 02:09:55;;;;;;;11.05;6.80;;;6.40;99.90;;;;;;4995641;28;20042;-62
2022/04/21 02:12:23;;;;;;;9.93;6.55;;;6.30;99.90;;;;;;4978984;28;20114;-62
2022/04/21 02:14:49;;;;;;;10.27;6.57;;;;;;;;;;4995800;28;20059;-62
2022/04/21 02:17:15;;;;;;;9.93;6.40;;;;;;;;;;4979110;28;20050;-63
2022/04/21 02:19:42;;;;;;;10.82;6.22;;;;;;;;;;4996368;28;20129;-63
2022/04/21 02:22:07;;;;;;;10.48;6.80;;;6.00;99.90;;;;;;4978539;28;20058;-62
2022/04/21 02:24:33;;;;;;;11.55;7.18;;;6.10;99.90;;;;;;4978759;28;20038;-62
2022/04/21 02:26:59;;;;;;;12.50;6.53;;;;;;;;;;4977953;28;20038;-62
2022/04/21 02:29:25;;;;;;;10.15;6.47;;;;;;;;;;4995931;28;20046;-62
2022/04/21 02:31:51;;;;;;;10.48;6.18;;;;;;;;;;4978921;28;20125;-62
2022/04/21 02:34:16;;;;;;;12.10;6.65;;;5.80;99.90;;;;;;4978554;28;20042;-62
2022/04/21 02:36:42;;;;;;;11.13;7.32;;;;;;;;;;4995688;28;20038;-62
2022/04/21 02:39:08;;;;;;;12.98;7.88;;;5.90;99.90;;;;;;4978238;28;20049;-62
2022/04/21 02:41:34;;;;;;;14.35;7.28;;;;;;;;;;4997855;28;20046;-62
2022/04/21 02:43:59;;;;;;;11.82;7.47;;;5.80;99.90;;;;;;4966136;28;20045;-62
2022/04/21 02:46:29;;;;;;;9.85;7.22;;;5.80;99.90;;;;;;4981520;28;20106;-62
2022/04/21 02:49:00;;;;;;;12.10;7.47;;;5.70;99.90;;;;;;4999463;28;20507;-62
2022/04/21 02:51:26;;;;;;;13.23;7.32;;;;;;;;;;4982486;28;20038;-62
2022/04/21 02:59:20;;;;;;;12.05;8.20;;;5.80;99.90;;;;;;4985001;28;20129;-62
2022/04/21 03:01:45;;;;;;;11.90;8.23;;;5.90;99.90;;;;;;4982691;28;20066;-62
2022/04/21 03:04:11;;;;;;;12.27;8.50;;;;;;;;;;4982621;28;20042;-62
2022/04/21 03:06:37;;;;;;;14.23;8.45;;;6.00;99.90;;;;;;4999195;28;20477;-62
2022/04/21 03:09:02;;;;;;;11.38;7.93;;;6.00;99.90;;;;;;4981159;28;20125;-62
2022/04/21 03:11:29;;;;;;;11.90;7.80;;;5.90;99.90;;;;;;4998666;28;20043;-62
2022/04/21 03:13:54;;;;;;;16.02;10.05;;;6.00;99.90;;;;;;4981141;28;20061;-62
2022/04/21 03:16:20;;;;;;;13.43;8.50;;;;;;;;;;4982147;28;20492;-62
2022/04/21 03:18:46;;;;;;;15.35;8.52;;;6.10;99.90;;;;;;4998842;28;20038;-62
2022/04/21 03:26:41;;;;;;;16.50;9.98;;;;;;;;;;4981255;28;20046;-62
2022/04/21 03:29:07;;;;;;;14.45;9.82;;;6.30;99.90;;;;;;4998660;28;20050;-62
2022/04/21 03:31:32;;;;;;;14.90;8.85;;;6.20;99.90;;;;;;4981454;28;20041;-62
2022/04/21 03:33:58;;;;;;;13.55;9.43;;;;;;;;;;4980618;28;20104;-62
2022/04/21 03:36:24;;;;;;;13.70;8.38;;;;;;;;;;4981347;28;20453;-62
2022/04/21 03:38:50;;;;;;;13.25;8.95;;;6.20;99.90;;;;;;4998686;28;20125;-62
2022/04/21 03:41:16;;;;;;;14.45;9.40;;;;;;;;;;4998858;28;20097;-62
2022/04/21 03:43:41;;;;;;;12.18;8.50;;;6.20;99.90;;;;;;4981840;28;20043;-62
2022/04/21 03:46:07;;;;;;;13.45;8.57;;;;;;;;;;4998909;28;20050;-62
2022/04/21 03:48:33;;;;;;;15.00;8.85;;;5.90;99.90;;;;;;4965919;28;20088;-62
2022/04/21 03:50:59;;;;;;;14.35;8.98;;;;;;;;;;4981189;28;20158;-62
2022/04/21 03:53:25;;;;;;;15.30;8.30;;;;;;;;;;4997794;28;20049;-62
2022/04/21 03:55:52;;;;;;;13.98;8.65;;;;;;;;;;4998023;28;20048;-62
2022/04/21 03:58:18;;;;;;;13.18;9.20;;;;;;;;;;4997964;28;20046;-62
2022/04/21 04:00:44;;;;;;;13.93;8.65;;;5.70;99.90;;;;;;4998068;28;20046;-63
2022/04/21 04:03:10;;;;;;;14.77;9.20;;;;;;;;;;4980705;28;20452;-62
2022/04/21 04:05:36;;;;;;;13.95;8.80;;;;;;;;;;4980614;28;20088;-62
2022/04/21 04:10:52;;;;;;;16.08;9.75;;;5.80;99.90;;;;;;4980102;28;20086;-62
2022/04/21 04:13:27;;;;;;;15.07;8.82;;;5.90;99.90;;;;;;4997950;28;20081;-62
2022/04/21 04:15:54;;;;;;;15.23;10.38;;;5.90;99.90;;;;;;4998128;28;20129;-62
2022/04/21 04:18:21;;;;;;;12.93;8.93;;;5.80;99.90;;;;;;4964524;28;20038;-62
2022/04/21 04:20:47;;;;;;;12.25;9.27;;;5.60;99.90;;;;;;4998266;28;20078;-62
2022/04/21 04:23:17;;;;;;;12.70;8.57;;;5.60;99.90;;;;;;4980768;28;20034;-62
2022/04/21 04:25:43;;;;;;;14.45;8.55;;;5.50;99.90;;;;;;4998333;28;20093;-62
2022/04/21 04:28:09;;;;;;;13.45;8.18;;;5.30;99.90;;;;;;4998321;28;20042;-62
2022/04/21 04:30:38;;;;;;;14.07;9.18;;;;;;;;;;4964594;28;20068;-61
2022/04/21 04:33:04;;;;;;;13.43;8.77;;;;;;;;;;4977362;28;20046;-62
2022/04/21 04:35:31;;;;;;;14.43;9.43;;;;;;;;;;4978044;28;20038;-62
2022/04/21 04:37:57;;;;;;;12.43;8.48;;;5.30;99.90;;;;;;4979031;28;20413;-62
2022/04/21 04:40:23;;;;;;;15.85;9.30;;;5.20;99.90;;;;;;4978101;28;20039;-62
2022/04/21 04:42:49;;;;;;;12.90;8.82;;;;;;;;;;4944501;28;20489;-63
2022/04/21 04:48:00;;;;;;;13.18;9.02;;;;;;;;;;4992978;28;20051;-63
2022/04/21 04:50:25;;;;;;;13.55;8.82;;;;;;;;;;4992906;28;20057;-62
2022/04/21 04:52:57;;;;;;;14.68;8.55;;;;;;;;;;4975241;28;20496;-63
2022/04/21 04:55:23;;;;;;;15.65;8.93;;;;;;;;;;4974280;28;20038;-63
2022/04/21 04:57:50;;;;;;;16.90;9.63;;;5.70;99.90;;;;;;4971777;28;20062;-63
2022/04/21 05:00:16;;;;;;;14.77;8.95;;;;;;;;;;4972198;28;20098;-65
2022/04/21 05:02:41;;;;;;;14.95;10.23;;;5.70;99.90;;;;;;4971357;28;20038;-64
2022/04/21 05:05:08;;;;;;;15.82;9.18;;;5.90;99.90;;;;;;4972236;28;20046;-64
2022/04/21 05:07:35;;;;;;;15.40;9.27;;;5.90;99.90;;;;;;4979922;28;20042;-65
2022/04/21 05:10:00;;;;;;;13.75;9.48;;;6.00;99.90;;;;;;4970737;28;20053;-65
2022/04/21 05:12:27;;;;;;;18.23;10.70;;;;;;;;;;4956841;28;20042;-65
2022/04/21 05:14:53;;;;;;;13.93;9.73;;;;;;;;;;4968584;28;20501;-64
2022/04/21 05:17:19;;;;;;;15.68;9.35;;;;;;;;;;4968697;28;20405;-63
2022/04/21 05:19:45;;;;;;;14.07;10.07;;;;;;;;;;4982275;28;20104;-62
2022/04/21 05:22:13;;;;;;;13.93;9.70;;;6.20;99.90;;;;;;4974653;28;20117;-63
2022/04/21 05:24:39;;;;;;;13.73;9.60;;;;;;;;;;4943014;28;20042;-62
2022/04/21 05:27:05;;;;;;;15.95;9.63;;;;;;;;;;4970087;28;20050;-63
2022/04/21 05:32:20;;;;;;;14.25;9.38;;;;;;;;;;4983385;28;20619;-62
2022/04/21 05:34:47;;;;;;;14.88;9.70;;;;;;;;;;4952829;28;20053;-62
2022/04/21 05:37:13;;;;;;;15.93;8.98;;;;;;;;;;4969958;28;20091;-63
2022/04/21 05:39:39;;;;;;;13.50;9.70;;;;;;;;;;4975672;28;20505;-62
2022/04/21 05:42:06;;;;;;;17.35;9.80;;;7.10;99.90;;;;;;4971831;28;20125;-63
2022/04/21 05:44:32;;;;;;;14.57;9.13;;;;;;;;;;4972274;28;20042;-63
2022/04/21 05:46:58;;;;;;;13.93;9.38;;;;;;;;;;4973937;28;20773;-63
2022/04/21 05:49:24;;;;;;;16.67;9.43;;;;;;;;;;4980148;28;20479;-62
2022/04/21 05:51:52;;;;;;;14.35;9.63;;;;;;;;;;4979175;28;20049;-62
2022/04/21 05:54:18;;;;;;;11.07;8.25;;;7.60;99.90;;;;;;4956590;28;20456;-62
2022/04/21 05:56:44;;;;;;;14.60;8.30;;;7.50;99.90;;;;;;4956591;28;20125;-63
2022/04/21 05:59:10;;;;;;;15.57;9.18;;;7.80;99.90;;;;;;4980886;28;20114;-63
2022/04/21 06:01:36;;;;;;;14.00;8.85;;;7.90;99.90;;;;;;4993690;28;20049;-63
2022/04/21 06:04:02;;;;;;;15.27;8.98;;;;;;;;;;4990266;28;20458;-64
2022/04/21 06:06:28;;;;;;;12.70;8.38;;;8.70;99.90;;;;;;4971557;28;20046;-61
2022/04/21 06:08:53;;;;;;;8.93;7.05;;;9.00;99.90;;;;;;4973956;28;20049;-62
2022/04/21 06:11:19;;;;;;;13.75;7.78;;;;;;;;;;4963185;28;20046;-62
2022/04/21 06:13:45;;;;;;;11.45;7.15;;;;;;;;;;4972268;28;20062;-61
2022/04/21 06:16:11;;;;;;;9.95;7.53;;;;;;;;;;4972386;28;20046;-60
2022/04/21 06:18:37;;;;;;;12.10;7.50;;;10.10;99.90;;;;;;4946899;28;20061;-62
2022/04/21 06:21:03;;;;;;;16.85;8.50;;;;;;;;;;4967768;28;20038;-60
2022/04/21 06:23:32;;;;;;;9.77;7.53;;;10.50;99.90;;;;;;4971575;28;20132;-62
2022/04/21 06:25:59;;;;;;;10.75;6.72;;;;;;;;;;4972697;28;20694;-62
2022/04/21 06:28:25;;;;;;;9.10;5.95;;;10.80;99.90;;;;;;4968992;28;20137;-59
2022/04/21 06:30:51;;;;;;;9.60;6.25;;;10.90;99.90;;;;;;4974265;28;20050;-62
2022/04/21 06:33:18;;;;;;;11.98;6.75;;;11.10;99.90;;;;;;4956816;28;20120;-62
2022/04/21 06:35:47;;;;;;;10.68;7.57;;;;;;;;;;4967196;28;20546;-62
2022/04/21 06:38:13;;;;;;;8.73;5.85;;;11.30;99.90;;;;;;4970121;28;20050;-63
2022/04/21 06:40:39;;;;;;;8.77;5.50;;;;;;;;;;4967044;28;20402;-62
2022/04/21 06:48:38;;;;;;;7.72;5.15;;;;;;;;;;4964365;28;20050;-62
2022/04/21 06:51:05;;;;;;;6.78;4.72;;;11.90;99.90;;;;;;4968064;28;20050;-62
2022/04/21 06:53:30;;;;;;;9.70;4.90;;;12.00;99.90;;;;;;4973095;28;20058;-62
2022/04/21 06:55:56;;;;;;;7.70;4.50;;;;;;;;;;4959450;28;20505;-63
2022/04/21 06:58:22;;;;;;;7.15;4.57;;;;;;;;;;4970504;28;20149;-63
2022/04/21 07:00:48;;;;;;;6.82;4.68;;;;;;;;;;4954346;28;20043;-62
2022/04/21 07:03:14;;;;;;;8.48;4.03;;;;;;;;;;4956023;28;20051;-61
2022/04/21 07:05:40;;;;;;;8.10;4.30;;;;;;;;;;4956588;28;20698;-62
2022/04/21 07:08:07;;;;;;;6.90;3.53;;;12.50;99.90;;;;;;4957627;28;20059;-61
2022/04/21 07:10:33;;;;;;;7.65;3.80;;;12.10;99.90;;;;;;4968206;28;20404;-62
2022/04/21 07:12:59;;;;;;;6.30;3.92;;;;;;;;;;4959301;28;20063;-63
2022/04/21 07:15:26;;;;;;;7.65;4.30;;;;;;;;;;4963952;28;20575;-61
2022/04/21 07:17:52;;;;;;;4.60;3.40;;;12.30;99.90;;;;;;4982145;28;20050;-61
2022/04/21 07:20:18;;;;;;;5.45;3.63;;;;;;;;;;4964703;28;20053;-63
2022/04/21 07:22:44;;;;;;;7.43;3.50;;;;;;;;;;4984842;28;20054;-63
2022/04/21 07:25:10;;;;;;;5.70;3.33;;;;;;;;;;4980732;28;20042;-62
2022/04/21 07:27:40;;;;;;;4.97;3.63;;;12.30;99.90;;;;;;4967833;28;20082;-63
2022/04/21 07:30:08;;;;;;;5.43;2.97;;;12.20;99.90;;;;;;4986821;28;20053;-62
2022/04/21 07:32:34;;;;;;;5.57;3.22;;;;;;;;;;4970411;28;20050;-61
2022/04/21 07:35:00;;;;;;;5.30;3.33;;;12.50;99.90;;;;;;4970211;28;20097;-62
2022/04/21 07:37:26;;;;;;;5.20;3.45;;;;;;;;;;4986100;28;20053;-61
2022/04/21 07:39:52;;;;;;;3.95;3.28;;;;;;;;;;4969190;28;20073;-62
2022/04/21 07:42:18;;;;;;;5.53;3.50;;;;;;;;;;4968168;28;20128;-62
2022/04/21 07:44:44;;;;;;;4.47;3.17;;;12.50;99.90;;;;;;4986273;28;20139;-62
2022/04/21 07:47:10;;;;;;;3.78;3.08;;;;;;;;;;4987832;28;20045;-61
2022/04/21 07:49:45;;;;;;;5.20;3.08;;;;;;;;;;4968094;28;20057;-62
2022/04/21 07:54:57;;;;;;;4.15;2.90;;;;;;;;;;4987388;28;20090;-62
2022/04/21 07:57:23;;;;;;;4.10;3.22;;;;;;;;;;4987417;28;20151;-61
2022/04/21 07:59:49;;;;;;;3.20;2.58;;;;;;;;;;4983736;28;20053;-62
2022/04/21 08:02:16;;;;;;;3.40;2.72;;;12.80;99.90;;;;;;4969431;28;20043;-62
2022/04/21 08:04:43;;;;;;;4.55;2.83;;;;;;;;;;4986462;28;20054;-62
2022/04/21 08:07:09;;;;;;;3.58;2.42;;;;;;;;;;4954558;28;20948;-62
2022/04/21 08:09:35;;;;;;;6.68;2.65;;;;;;;;;;4986271;28;20061;-62
2022/04/21 08:12:01;;;;;;;2.25;1.88;;;;;;;;;;4985068;28;20038;-62
2022/04/21 08:14:28;;;;;;;3.15;2.63;;;;;;;;;;4984166;28;20152;-61
2022/04/21 08:16:54;;;;;;;4.03;2.53;;;13.00;99.90;;;;;;4987901;28;20073;-62
2022/04/21 08:19:22;;;;;;;4.68;2.85;;;13.20;99.90;;;;;;4986092;28;20473;-62
2022/04/21 08:21:48;;;;;;;4.78;2.65;;;;;;;;;;4986282;28;20056;-63
2022/04/21 08:32:43;;;;;;;4.53;2.80;;;;;;;;;;4982059;28;20466;-62
2022/04/21 08:35:13;;;;;;;4.18;2.85;;;13.40;99.90;;;;;;4963780;28;20585;-62
2022/04/21 08:37:39;;;;;;;4.15;2.42;;;14.10;99.90;;;;;;4985068;28;20538;-63
2022/04/21 08:40:06;;;;;;;6.25;2.92;;;;;;;;;;4964699;28;20519;-62
2022/04/21 08:42:39;;;;;;;3.88;2.88;;;13.80;99.90;;;;;;4963535;28;20759;-63
2022/04/21 08:45:06;;;;;;;3.97;2.85;;;14.00;99.90;;;;;;4966532;28;20137;-62
2022/04/21 08:47:32;;;;;;;3.45;2.75;;;;;;;;;;4965725;28;20137;-62
2022/04/21 08:50:12;;;;;;;7.13;2.88;;;13.90;99.90;;;;;;4965308;28;20056;-62
2022/04/21 08:52:38;;;;;;;3.60;2.45;;;;;;;;;;4981942;28;20042;-63
2022/04/21 08:55:04;;;;;;;4.38;2.83;;;14.10;99.90;;;;;;4985026;28;20081;-63
2022/04/21 08:57:31;;;;;;;6.07;3.20;;;;;;;;;;4967064;28;20424;-64
2022/04/21 08:59:57;;;;;;;3.65;3.08;;;14.10;99.90;;;;;;4967110;28;20088;-64
2022/04/21 09:02:37;;;;;;;3.90;2.78;;;14.20;99.90;;;;;;4966300;28;20185;-64
2022/04/21 09:05:04;;;;;;;6.53;3.40;;;14.20;99.90;;;;;;4962935;28;20046;-63
2022/04/21 09:07:29;;;;;;;4.40;3.15;;;14.40;99.90;;;;;;4983807;28;20058;-63
2022/04/21 09:10:07;;;;;;;5.55;3.33;;;14.70;99.90;;;;;;4983189;28;20046;-63
2022/04/21 09:12:36;;;;;;;4.57;2.72;;;14.60;99.90;;;;;;4981649;28;20042;-63
2022/04/21 09:15:11;;;;;;;5.10;3.10;;;14.60;99.90;;;;;;4966481;28;20070;-63
2022/04/21 09:17:40;;;;;;;4.85;3.10;;;14.60;99.90;;;;;;4984111;28;20492;-63
2022/04/21 09:20:07;;;;;;;3.78;2.85;;;14.80;99.90;;;;;;4983901;28;20093;-63
2022/04/21 09:22:33;;;;;;;3.10;2.25;;;14.80;99.90;;;;;;4983363;28;20041;-63
2022/04/21 09:24:59;;;;;;;4.90;2.70;;;14.80;99.90;;;;;;4983092;28;21002;-63
2022/04/21 09:27:41;;;;;;;5.65;3.08;;;14.90;99.90;;;;;;4983748;28;20042;-64
2022/04/21 09:30:10;;;;;;;5.05;2.50;;;14.90;99.90;;;;;;4982654;28;20148;-64
2022/04/21 09:32:37;;;;;;;5.57;2.72;;;;;;;;;;4981197;28;20041;-64
2022/04/21 09:35:04;;;;;;;5.68;2.50;;;14.90;99.90;;;;;;4984767;28;20081;-63
2022/04/21 09:37:30;;;;;;;3.95;2.47;;;;;;;;;;4965195;28;20090;-63
2022/04/21 09:39:56;;;;;;;4.75;2.80;;;15.30;99.90;;;;;;4965230;28;20228;-64
2022/04/21 09:42:26;;;;;;;5.30;3.00;;;15.60;99.90;;;;;;4965733;28;20101;-63
2022/04/21 09:47:36;;;;;;;5.72;2.90;;;;;;;;;;4965793;28;20104;-63
2022/04/21 09:50:12;;;;;;;4.20;2.50;;;15.70;99.90;;;;;;4979356;28;20620;-62
2022/04/21 09:52:39;;;;;;;5.35;2.13;;;;;;;;;;4980521;28;20070;-65
2022/04/21 09:55:31;;;;;;;4.68;3.00;;;16.00;99.90;;;;;;4959989;28;20038;-64
2022/04/21 09:58:07;;;;;;;8.57;2.55;;;16.00;99.90;;;;;;4980958;28;20046;-64
2022/04/21 10:00:38;;;;;;;5.03;2.78;;;16.60;99.90;;;;;;4960332;28;20132;-65
2022/04/21 10:03:05;;;;;;;4.07;2.72;;;16.10;99.90;;;;;;4963287;28;20104;-63
2022/04/21 10:05:35;;;;;;;5.93;2.80;;;15.90;99.90;;;;;;4982177;28;20145;-63
2022/04/21 10:08:06;;;;;;;6.35;2.50;;;16.30;99.90;;;;;;4964331;28;20564;-62
2022/04/21 10:10:33;;;;;;;6.50;2.30;;;16.40;99.90;;;;;;4981659;28;20056;-64
2022/04/21 10:13:00;;;;;;;3.65;2.35;;;16.10;99.90;;;;;;4983896;28;20119;-65
2022/04/21 10:15:30;;;;;;;3.75;2.78;;;16.20;99.90;;;;;;4985991;28;20440;-63
2022/04/21 10:17:56;;;;;;;4.25;2.20;;;16.30;99.90;;;;;;4982060;28;20073;-64
2022/04/21 10:20:24;;;;;;;4.38;2.42;;;16.10;99.90;;;;;;4980625;28;20034;-62
2022/04/21 10:22:51;;;;;;;5.63;2.38;;;16.10;99.90;;;;;;4985850;28;20056;-64
2022/04/21 10:25:18;;;;;;;2.97;2.17;;;16.60;99.90;;;;;;4958457;28;20086;-63
2022/04/21 10:27:47;;;;;;;4.97;2.20;;;16.20;99.90;;;;;;4987772;28;20053;-64
2022/04/21 10:30:21;;;;;;;5.32;2.40;;;16.30;99.90;;;;;;4982194;28;20986;-62
2022/04/21 10:32:58;;;;;;;2.72;2.08;;;16.00;99.90;;;;;;4988974;28;20046;-64
2022/04/21 10:35:24;;;;;;;8.27;2.53;;;16.10;99.90;;;;;;4990550;28;20582;-63
2022/04/21 10:38:14;;;;;;;4.78;2.00;;;16.10;99.90;;;;;;4993039;28;20046;-62
2022/04/21 10:41:10;;;;;;;3.63;2.45;;;16.10;99.90;;;;;;4989057;28;20049;-63
2022/04/21 10:43:48;;;;;;;2.60;2.08;;;16.20;99.90;;;;;;4988560;28;20046;-63
2022/04/21 10:46:21;;;;;;;3.08;2.30;;;16.20;99.90;;;;;;4973374;28;20065;-65
2022/04/21 10:48:47;;;;;;;3.75;2.55;;;16.20;99.90;;;;;;4994799;28;20050;-63
2022/04/21 10:51:13;;;;;;;2.80;2.60;;;;;;;;;;4989884;28;20078;-61
2022/04/21 10:59:31;;;;;;;5.55;2.50;;;16.60;99.90;;;;;;4964429;28;21032;-62
2022/04/21 11:02:11;;;;;;;3.42;2.72;;;16.80;99.90;;;;;;4984651;28;20377;-61
2022/04/21 11:04:37;;;;;;;4.22;1.70;;;16.60;99.90;;;;;;4966454;28;20054;-62
2022/04/21 11:07:10;;;;;;;10.18;2.70;;;16.50;99.90;;;;;;4991390;28;20155;-62
2022/04/21 11:09:38;;;;;;;5.03;3.40;;;16.50;99.90;;;;;;4965226;28;20049;-63
2022/04/21 11:12:06;;;;;;;4.88;2.53;;;16.60;99.90;;;;;;4984222;28;20153;-63
2022/04/21 11:14:34;;;;;;;3.53;2.40;;;16.50;99.90;;;;;;4982459;28;20070;-62
2022/04/21 11:17:04;;;;;;;2.95;2.20;;;16.60;99.90;;;;;;4980335;28;20452;-62
2022/04/21 11:19:32;;;;;;;3.72;2.50;;;15.90;99.90;;;;;;4962130;28;20042;-62
2022/04/21 11:22:00;;;;;;;3.83;2.47;;;16.70;99.90;;;;;;4963747;28;20629;-62
2022/04/21 11:24:26;;;;;;;4.65;2.90;;;16.70;99.90;;;;;;4986653;28;20041;-61
2022/04/21 11:27:01;;;;;;;4.68;2.67;;;16.70;99.90;;;;;;4982552;28;20039;-61
2022/04/21 11:29:27;;;;;;;3.97;2.53;;;16.60;99.90;;;;;;4969915;28;20053;-61
2022/04/21 11:31:57;;;;;;;7.30;2.67;;;16.80;99.90;;;;;;4965974;28;20085;-60
2022/04/21 11:34:24;;;;;;;3.38;2.25;;;16.80;99.90;;;;;;4982136;28;20104;-61
2022/04/21 11:36:53;;;;;;;8.60;2.97;;;16.80;99.90;;;;;;4967579;28;20041;-61
2022/04/21 11:39:19;;;;;;;4.45;2.90;;;16.80;99.90;;;;;;4984322;28;20042;-61
2022/04/21 11:41:48;;;;;;;3.72;3.03;;;16.80;99.90;;;;;;4966853;28;20499;-61
2022/04/21 11:44:22;;;;;;;4.50;3.08;;;16.80;99.90;;;;;;4983503;28;20125;-61
2022/04/21 11:46:48;;;;;;;3.72;2.45;;;16.80;99.90;;;;;;4969740;28;20685;-61
2022/04/21 11:49:13;;;;;;;6.38;2.60;;;16.90;99.90;;;;;;4969995;28;20528;-61
2022/04/21 11:51:41;;;;;;;3.40;2.30;;;16.80;99.90;;;;;;4969563;28;20045;-62
2022/04/21 11:54:08;;;;;;;4.88;2.60;;;16.90;99.90;;;;;;4969095;28;20091;-61
2022/04/21 11:56:34;;;;;;;6.13;3.30;;;16.80;99.90;;;;;;4982908;28;20248;-61
2022/04/21 11:59:08;;;;;;;5.10;2.90;;;16.90;99.90;;;;;;4965963;28;20799;-61
2022/04/21 12:07:15;;;;;;;4.35;2.97;;;17.20;99.90;;;;;;4967704;28;20058;-61
2022/04/21 12:09:44;;;;;;;5.65;2.90;;;17.10;99.90;;;;;;4984814;28;20037;-60
2022/04/21 12:12:30;;;;;;;6.80;2.38;;;16.80;99.90;;;;;;4966880;28;20050;-61
2022/04/21 12:15:07;;;;;;;5.32;2.70;;;17.20;99.90;;;;;;4981921;28;20045;-61
2022/04/21 12:17:36;;;;;;;7.18;3.17;;;17.20;99.90;;;;;;4950094;28;20046;-61
2022/04/21 12:20:08;;;;;;;6.85;3.00;;;17.30;99.90;;;;;;4917065;28;20042;-61
2022/04/21 12:22:51;;;;;;;4.15;2.38;;;17.00;99.90;;;;;;4967495;28;21545;-61
2022/04/21 12:25:19;;;;;;;3.15;2.28;;;16.90;99.90;;;;;;4973360;28;20566;-61
2022/04/21 12:27:55;;;;;;;3.83;2.42;;;17.10;99.90;;;;;;4964802;28;20407;-61
2022/04/21 12:30:25;;;;;;;5.18;2.15;;;16.70;99.90;;;;;;4965902;28;20062;-61
2022/04/21 12:32:54;;;;;;;4.57;2.10;;;16.70;99.90;;;;;;4985710;28;20046;-62
2022/04/21 12:35:41;;;;;;;5.97;2.20;;;16.50;99.90;;;;;;4984386;28;20613;-61
2022/04/21 12:40:55;;;;;;;6.53;2.38;;;16.40;99.90;;;;;;4977804;28;20051;-62
2022/04/21 12:43:22;;;;;;;6.10;2.20;;;16.40;99.90;;;;;;4961466;28;20030;-61
2022/04/21 12:46:01;;;;;;;4.63;2.47;;;16.60;99.90;;;;;;4979317;28;20037;-62
2022/04/21 12:49:13;;;;;;;4.68;2.50;;;16.60;99.90;;;;;;4880924;29;20138;-61
2022/04/21 12:51:49;;;;;;;3.15;2.60;;;16.60;99.90;;;;;;4923316;28;20082;-61
2022/04/21 12:54:30;;;;;;;7.07;2.40;;;16.60;99.90;;;;;;4938238;28;20055;-65
2022/04/21 12:57:08;;;;;;;4.50;2.80;;;16.60;99.90;;;;;;4939501;28;20489;-65
2022/04/21 12:59:36;;;;;;;5.55;2.75;;;16.80;99.90;;;;;;4926828;28;20517;-65
2022/04/21 13:02:05;;;;;;;7.97;2.08;;;16.80;99.90;;;;;;4921421;28;20051;-62
2022/04/21 13:04:32;;;;;;;4.53;2.63;;;16.70;99.90;;;;;;4924924;28;20048;-63
2022/04/21 13:07:00;;;;;;;4.20;2.58;;;16.70;99.90;;;;;;4937218;28;20118;-64
2022/04/21 13:09:25;;;;;;;4.93;2.13;;;16.70;99.90;;;;;;4939250;28;20255;-63
2022/04/21 13:15:16;;;;;;;5.13;2.53;;;16.50;99.90;;;;;;4937047;28;20062;-64
2022/04/21 13:17:44;;;;;;;5.60;3.00;;;16.40;99.90;;;;;;4923873;28;20051;-64
2022/04/21 13:20:10;;;;;;;4.95;2.95;;;16.50;99.90;;;;;;4938535;28;20244;-63
2022/04/21 13:22:36;;;;;;;4.47;2.80;;;16.50;99.90;;;;;;4938074;28;20050;-62
2022/04/21 13:25:03;;;;;;;4.88;3.00;;;14.60;99.90;;;;;;4942408;28;20319;-64
2022/04/21 13:27:29;;;;;;;4.95;3.08;;;16.50;99.90;;;;;;4961209;28;20050;-63
2022/04/21 13:29:54;;;;;;;4.93;3.35;;;16.50;99.90;;;;;;4981229;28;20611;-64
2022/04/21 13:35:06;;;;;;;4.18;2.65;;;16.50;99.90;;;;;;4962646;28;20177;-63
2022/04/21 13:37:31;;;;;;;6.75;2.88;;;16.60;99.90;;;;;;4963991;28;20507;-63
2022/04/21 13:39:57;;;;;;;4.25;3.78;;;16.60;99.90;;;;;;4980194;28;20050;-66
2022/04/21 13:42:22;;;;;;;3.92;3.40;;;16.80;99.90;;;;;;4980601;28;20093;-64
2022/04/21 13:44:48;;;;;;;5.15;3.78;;;16.70;99.90;;;;;;4980893;28;20219;-65
2022/04/21 13:47:13;;;;;;;4.85;3.20;;;16.80;99.90;;;;;;4963618;28;20820;-67
2022/04/21 13:49:43;;;;;;;5.10;3.55;;;16.80;99.90;;;;;;4964678;28;20061;-65
2022/04/21 13:52:11;;;;;;;5.38;3.33;;;16.90;99.90;;;;;;4965261;28;20077;-65
2022/04/21 13:54:37;;;;;;;5.50;3.58;;;16.70;99.90;;;;;;4964502;28;20586;-64
2022/04/21 13:57:04;;;;;;;6.28;3.22;;;17.00;99.90;;;;;;4980363;28;20089;-64
2022/04/21 13:59:30;;;;;;;4.57;3.63;;;17.00;99.90;;;;;;4982566;28;20486;-65
2022/04/21 14:01:56;;;;;;;4.05;3.40;;;16.90;99.90;;;;;;4981966;28;20917;-64
2022/04/21 14:04:21;;;;;;;4.80;3.42;;;17.00;99.90;;;;;;4965039;28;20133;-63
2022/04/21 14:06:49;;;;;;;4.85;3.58;;;17.10;99.90;;;;;;4973427;28;20054;-64
2022/04/21 14:09:14;;;;;;;6.60;3.92;;;17.20;99.90;;;;;;4976647;28;20537;-64
2022/04/21 14:11:40;;;;;;;4.53;3.05;;;17.20;99.90;;;;;;4978333;28;20045;-64
2022/04/21 14:14:06;;;;;;;4.25;3.30;;;17.20;99.90;;;;;;4970644;28;21575;-64
2022/04/21 14:16:32;;;;;;;10.40;4.30;;;17.20;99.90;;;;;;4958561;28;20057;-64
2022/04/21 14:18:59;;;;;;;4.03;3.35;;;17.40;99.90;;;;;;4968079;28;20043;-63
2022/04/21 14:21:24;;;;;;;4.90;3.60;;;17.40;99.90;;;;;;4966893;28;20042;-63
2022/04/21 14:23:50;;;;;;;5.63;3.85;;;17.50;99.90;;;;;;4965271;28;20050;-63
2022/04/21 14:26:15;;;;;;;6.90;3.95;;;17.50;99.90;;;;;;4961160;28;20088;-64
2022/04/21 14:28:42;;;;;;;6.07;3.60;;;17.10;99.90;;;;;;4966088;28;20042;-63